Time;durP1;ratioP1;P1;durP2;ratioP2;P2;SDS_P1;SDS_P2;PMS_P1;PMS_P2;Temp;Humidity;BMP_temperature;BMP_pressure;BME280_temperature;BME280_humidity;BME280_pressure;Samples;Min_cycle;Max_cycle;Signal;HPM_P1;HPM_P2
2021/03/18 00:01:05;;;;;;;16.30;8.77;;;3.30;99.90;;;;;;5044612;28;20205;-79
2021/03/18 00:03:34;;;;;;;18.67;8.30;;;3.30;99.90;;;;;;5057929;28;20248;-79
2021/03/18 00:06:02;;;;;;;16.80;7.90;;;3.30;99.90;;;;;;5057320;28;20274;-79
2021/03/18 00:08:28;;;;;;;10.80;6.87;;;3.30;99.90;;;;;;5057776;28;20234;-80
2021/03/18 00:10:56;;;;;;;16.00;6.53;;;3.30;99.90;;;;;;5045338;28;20636;-80
2021/03/18 00:13:24;;;;;;;14.50;6.83;;;3.20;99.90;;;;;;5054524;28;20203;-80
2021/03/18 00:15:51;;;;;;;16.03;6.90;;;3.20;99.90;;;;;;5057063;28;20246;-79
2021/03/18 00:18:19;;;;;;;16.40;7.20;;;3.20;99.90;;;;;;5038865;28;20248;-80
2021/03/18 00:20:46;;;;;;;16.63;7.67;;;3.30;99.90;;;;;;5053681;28;20258;-80
2021/03/18 00:23:13;;;;;;;15.93;7.63;;;3.40;99.90;;;;;;5053895;28;20239;-80
2021/03/18 00:25:39;;;;;;;14.13;7.30;;;3.40;99.90;;;;;;5054502;28;20235;-80
2021/03/18 00:28:08;;;;;;;17.00;8.07;;;3.40;99.90;;;;;;5054534;28;20230;-80
2021/03/18 00:30:34;;;;;;;16.27;7.37;;;3.40;99.90;;;;;;5052966;28;20217;-80
2021/03/18 00:33:01;;;;;;;17.20;9.13;;;3.30;99.90;;;;;;5054615;28;20628;-80
2021/03/18 00:35:28;;;;;;;20.50;9.50;;;3.40;99.90;;;;;;5050066;28;20228;-79
2021/03/18 00:37:56;;;;;;;17.73;9.27;;;3.30;99.90;;;;;;5034604;28;20200;-79
2021/03/18 00:40:25;;;;;;;23.53;10.37;;;3.30;99.90;;;;;;5034262;28;20231;-78
2021/03/18 00:42:55;;;;;;;16.00;8.37;;;3.20;99.90;;;;;;5034129;28;20695;-78
2021/03/18 00:45:24;;;;;;;14.20;7.40;;;3.10;99.90;;;;;;5039180;28;20629;-79
2021/03/18 00:47:51;;;;;;;17.07;7.67;;;3.10;99.90;;;;;;5053425;28;20622;-78
2021/03/18 00:50:24;;;;;;;16.13;7.67;;;3.20;99.90;;;;;;5042211;28;20261;-78
2021/03/18 00:52:51;;;;;;;16.50;7.33;;;3.20;99.90;;;;;;5034380;28;20202;-78
2021/03/18 00:55:17;;;;;;;18.73;7.53;;;3.10;99.90;;;;;;5045365;28;20254;-78
2021/03/18 00:57:44;;;;;;;14.40;7.33;;;3.10;99.90;;;;;;5053624;28;20231;-80
2021/03/18 01:00:17;;;;;;;18.10;6.97;;;3.00;99.90;;;;;;5052069;28;20718;-79
2021/03/18 01:02:45;;;;;;;15.20;7.03;;;3.00;99.90;;;;;;5040373;28;20223;-78
2021/03/18 01:05:14;;;;;;;10.93;6.77;;;2.90;99.90;;;;;;5050794;28;20704;-78
2021/03/18 01:07:41;;;;;;;13.97;7.13;;;2.90;99.90;;;;;;5053516;28;20273;-79
2021/03/18 01:10:09;;;;;;;16.27;6.93;;;2.80;99.90;;;;;;5048605;28;20251;-79
2021/03/18 01:12:36;;;;;;;13.10;6.77;;;2.80;99.90;;;;;;5053445;28;20245;-77
2021/03/18 01:15:05;;;;;;;13.90;7.30;;;2.80;99.90;;;;;;5052687;28;20238;-79
2021/03/18 01:17:32;;;;;;;14.83;7.63;;;2.80;99.90;;;;;;5052351;28;20304;-81
2021/03/18 01:19:59;;;;;;;15.87;7.50;;;2.80;99.90;;;;;;5053788;28;20296;-78
2021/03/18 01:22:25;;;;;;;17.43;7.67;;;2.80;99.90;;;;;;5053303;28;20263;-81
2021/03/18 01:24:54;;;;;;;17.33;7.43;;;2.80;99.90;;;;;;5053207;28;20240;-81
2021/03/18 01:27:23;;;;;;;14.63;7.43;;;2.70;99.90;;;;;;5053819;28;20242;-78
2021/03/18 01:29:50;;;;;;;20.70;7.63;;;2.70;99.90;;;;;;5052315;28;20220;-78
2021/03/18 01:32:16;;;;;;;17.10;8.60;;;2.80;99.90;;;;;;5053570;28;20232;-80
2021/03/18 01:34:43;;;;;;;17.97;8.20;;;2.90;99.90;;;;;;5053278;28;20203;-80
2021/03/18 01:37:13;;;;;;;17.90;7.63;;;2.90;99.90;;;;;;5034700;28;20228;-79
2021/03/18 01:39:40;;;;;;;16.70;7.53;;;2.90;99.90;;;;;;5044627;28;20227;-80
2021/03/18 01:42:07;;;;;;;15.97;7.50;;;2.90;99.90;;;;;;5052802;28;20712;-80
2021/03/18 01:44:33;;;;;;;20.13;8.47;;;2.90;99.90;;;;;;5051639;28;20200;-80
2021/03/18 01:47:00;;;;;;;18.17;7.73;;;3.00;99.90;;;;;;5052836;28;20281;-80
2021/03/18 01:49:26;;;;;;;18.00;7.90;;;3.00;99.90;;;;;;5052550;28;20314;-80
2021/03/18 01:51:53;;;;;;;19.50;8.43;;;3.00;99.90;;;;;;5052226;28;20242;-80
2021/03/18 01:54:20;;;;;;;18.83;8.33;;;3.00;99.90;;;;;;5052593;28;20255;-79
2021/03/18 01:56:47;;;;;;;20.73;8.30;;;3.00;99.90;;;;;;5053360;28;20274;-80
2021/03/18 01:59:13;;;;;;;19.17;8.53;;;3.00;99.90;;;;;;5052299;28;20200;-80
2021/03/18 02:01:40;;;;;;;16.63;8.23;;;3.00;99.90;;;;;;5052973;28;20231;-80
2021/03/18 02:04:06;;;;;;;19.37;8.57;;;3.10;99.90;;;;;;5052801;28;20204;-80
2021/03/18 02:06:33;;;;;;;19.30;7.97;;;3.00;99.90;;;;;;5052738;28;20239;-80
2021/03/18 02:09:00;;;;;;;17.73;8.20;;;3.10;99.90;;;;;;5034937;28;20665;-81
2021/03/18 02:11:27;;;;;;;21.33;7.97;;;3.00;99.90;;;;;;5042437;28;20208;-80
2021/03/18 02:13:53;;;;;;;19.13;8.73;;;3.10;99.90;;;;;;5052382;28;20246;-81
2021/03/18 02:16:20;;;;;;;18.33;8.17;;;3.20;99.90;;;;;;5050995;28;20243;-81
2021/03/18 02:18:53;;;;;;;22.10;8.50;;;3.20;99.90;;;;;;5050968;28;20250;-79
2021/03/18 02:21:52;;;;;;;24.43;8.70;;;3.30;99.90;;;;;;5052549;28;20269;-80
2021/03/18 02:24:32;;;;;;;22.90;8.07;;;3.30;99.90;;;;;;5052440;28;20622;-80
2021/03/18 02:27:38;;;;;;;22.37;8.13;;;3.20;99.90;;;;;;5051637;28;20227;-80
2021/03/18 02:30:37;;;;;;;15.90;7.77;;;3.30;99.90;;;;;;4982831;28;20225;-80
2021/03/18 02:34:02;;;;;;;19.10;7.40;;;3.30;99.90;;;;;;4989601;28;20203;-80
2021/03/18 02:36:35;;;;;;;21.10;8.37;;;3.30;99.90;;;;;;4990256;28;20202;-80
2021/03/18 02:39:05;;;;;;;20.13;8.17;;;3.30;99.90;;;;;;4990568;28;20197;-80
2021/03/18 02:41:34;;;;;;;16.27;7.70;;;3.20;99.90;;;;;;4988902;28;20233;-80
2021/03/18 02:44:06;;;;;;;18.50;8.17;;;3.20;99.90;;;;;;4990049;28;20240;-80
2021/03/18 02:46:34;;;;;;;20.00;8.00;;;3.10;99.90;;;;;;4989936;28;20293;-80
2021/03/18 02:49:03;;;;;;;17.17;8.50;;;3.00;99.90;;;;;;4990379;28;20318;-80
2021/03/18 02:51:32;;;;;;;22.23;8.17;;;3.00;99.90;;;;;;4983274;28;20233;-80
2021/03/18 02:54:04;;;;;;;25.70;9.10;;;3.00;99.90;;;;;;4978787;28;20239;-80
2021/03/18 02:56:32;;;;;;;19.73;8.60;;;2.90;99.90;;;;;;4989642;28;20236;-81
2021/03/18 02:59:00;;;;;;;21.87;8.13;;;2.90;99.90;;;;;;4989907;28;20202;-80
2021/03/18 03:01:27;;;;;;;19.17;8.67;;;2.90;99.90;;;;;;4977307;28;20735;-81
2021/03/18 03:03:56;;;;;;;24.37;9.10;;;3.00;99.90;;;;;;4971206;28;20237;-79
2021/03/18 03:06:23;;;;;;;22.70;8.93;;;3.00;99.90;;;;;;4988431;28;20235;-78
2021/03/18 03:08:52;;;;;;;23.87;9.37;;;3.10;99.90;;;;;;5032046;28;20748;-80
2021/03/18 03:11:22;;;;;;;21.53;8.23;;;3.10;99.90;;;;;;5031908;28;20236;-80
2021/03/18 03:13:49;;;;;;;20.47;8.27;;;3.10;99.90;;;;;;5031836;28;20247;-78
2021/03/18 03:16:19;;;;;;;19.70;8.60;;;3.00;99.90;;;;;;5031610;28;20882;-79
2021/03/18 03:18:48;;;;;;;19.17;8.03;;;3.00;99.90;;;;;;5032063;28;20614;-80
2021/03/18 03:21:17;;;;;;;21.30;8.20;;;3.20;99.90;;;;;;5033816;28;20237;-80
2021/03/18 03:23:45;;;;;;;17.83;7.87;;;3.20;99.90;;;;;;5051979;28;20201;-80
2021/03/18 03:26:15;;;;;;;20.10;7.57;;;3.30;99.90;;;;;;5040377;28;20308;-80
2021/03/18 03:28:42;;;;;;;16.30;7.70;;;3.30;99.90;;;;;;5031292;28;20203;-79
2021/03/18 03:31:09;;;;;;;22.90;7.90;;;3.40;99.90;;;;;;5050030;28;20219;-80
2021/03/18 03:33:38;;;;;;;18.33;7.77;;;3.40;99.90;;;;;;5051562;28;20200;-80
2021/03/18 03:36:06;;;;;;;19.17;8.10;;;3.40;99.90;;;;;;5051920;28;20219;-80
2021/03/18 03:38:32;;;;;;;19.13;7.80;;;3.40;99.90;;;;;;5051204;28;20232;-80
2021/03/18 03:40:59;;;;;;;16.43;7.57;;;3.40;99.90;;;;;;5051364;28;20235;-80
2021/03/18 03:43:26;;;;;;;21.70;7.97;;;3.40;99.90;;;;;;5051233;28;20242;-80
2021/03/18 03:45:53;;;;;;;19.50;7.90;;;3.40;99.90;;;;;;5050256;28;20191;-80
2021/03/18 03:48:20;;;;;;;15.90;7.33;;;3.40;99.90;;;;;;5051107;28;20341;-79
2021/03/18 03:50:47;;;;;;;20.47;8.10;;;3.40;99.90;;;;;;5051021;28;20642;-80
2021/03/18 03:53:20;;;;;;;19.90;8.53;;;3.40;99.90;;;;;;5053536;28;20235;-80
2021/03/18 03:55:54;;;;;;;19.70;7.77;;;3.40;99.90;;;;;;5046849;28;20280;-80
2021/03/18 03:58:46;;;;;;;18.83;8.20;;;3.40;99.90;;;;;;5053011;28;20256;-79
2021/03/18 04:01:18;;;;;;;19.33;7.80;;;3.40;99.90;;;;;;5050360;28;20193;-80
2021/03/18 04:03:47;;;;;;;21.43;8.30;;;3.40;99.90;;;;;;5047909;28;20232;-80
2021/03/18 04:06:13;;;;;;;19.87;8.37;;;3.40;99.90;;;;;;5035469;28;20281;-80
2021/03/18 04:08:42;;;;;;;17.47;7.83;;;3.30;99.90;;;;;;5035014;28;20205;-80
2021/03/18 04:11:10;;;;;;;21.73;7.80;;;3.20;99.90;;;;;;5034961;28;20704;-80
2021/03/18 04:13:37;;;;;;;22.17;8.07;;;3.20;99.90;;;;;;5034830;28;20242;-80
2021/03/18 04:16:05;;;;;;;18.50;7.80;;;3.20;99.90;;;;;;5048000;28;20232;-80
2021/03/18 04:18:37;;;;;;;20.20;8.83;;;3.10;99.90;;;;;;5049955;28;20265;-80
2021/03/18 04:21:06;;;;;;;22.13;7.80;;;3.20;99.90;;;;;;5053854;28;20756;-81
2021/03/18 04:23:33;;;;;;;16.63;7.97;;;3.20;99.90;;;;;;5054630;28;20232;-80
2021/03/18 04:26:02;;;;;;;16.87;7.83;;;3.10;99.90;;;;;;5054290;28;20197;-80
2021/03/18 04:28:30;;;;;;;18.90;8.10;;;3.10;99.90;;;;;;5036467;28;20639;-80
2021/03/18 04:30:58;;;;;;;24.07;8.27;;;3.20;99.90;;;;;;5044812;28;20262;-80
2021/03/18 04:33:28;;;;;;;21.70;9.07;;;3.20;99.90;;;;;;5054588;28;20242;-80
2021/03/18 04:35:56;;;;;;;17.70;7.83;;;3.20;99.90;;;;;;5054439;28;20247;-80
2021/03/18 04:38:25;;;;;;;16.70;7.30;;;3.30;99.90;;;;;;5053823;28;20252;-80
2021/03/18 04:40:52;;;;;;;22.93;8.20;;;3.20;99.90;;;;;;5054629;28;20232;-80
2021/03/18 04:43:19;;;;;;;18.30;8.10;;;3.30;99.90;;;;;;5054456;28;20215;-80
2021/03/18 04:45:46;;;;;;;18.90;7.93;;;3.20;99.90;;;;;;5054316;28;20246;-80
2021/03/18 04:48:14;;;;;;;21.00;7.67;;;3.20;99.90;;;;;;5054533;28;20199;-81
2021/03/18 04:50:41;;;;;;;22.93;8.60;;;3.20;99.90;;;;;;5053995;28;20220;-81
2021/03/18 04:53:08;;;;;;;18.33;7.93;;;3.20;99.90;;;;;;5035294;28;20232;-80
2021/03/18 04:55:35;;;;;;;19.53;7.67;;;3.30;99.90;;;;;;5047863;28;20295;-80
2021/03/18 04:58:04;;;;;;;23.23;8.20;;;3.20;99.90;;;;;;5054228;28;20231;-79
2021/03/18 05:00:32;;;;;;;21.03;7.57;;;3.30;99.90;;;;;;5054029;28;20227;-80
2021/03/18 05:03:02;;;;;;;19.33;8.90;;;3.30;99.90;;;;;;5053294;28;20201;-80
2021/03/18 05:05:29;;;;;;;21.90;7.90;;;3.30;99.90;;;;;;5053004;28;20219;-80
2021/03/18 05:07:58;;;;;;;26.63;8.93;;;3.40;99.90;;;;;;5033673;28;20239;-79
2021/03/18 05:10:26;;;;;;;22.20;8.40;;;3.40;99.90;;;;;;5051563;28;20251;-80
2021/03/18 05:12:55;;;;;;;23.10;8.67;;;3.30;99.90;;;;;;5041269;28;20240;-80
2021/03/18 05:15:22;;;;;;;22.03;8.50;;;3.30;99.90;;;;;;5034189;28;20247;-79
2021/03/18 05:17:49;;;;;;;20.63;8.07;;;3.20;99.90;;;;;;5034074;28;20260;-80
2021/03/18 05:20:18;;;;;;;22.97;8.60;;;3.10;99.90;;;;;;5038613;28;20220;-80
2021/03/18 05:22:47;;;;;;;19.40;8.00;;;3.10;99.90;;;;;;5053413;28;20237;-80
2021/03/18 05:25:18;;;;;;;20.70;7.67;;;3.00;99.90;;;;;;5053622;28;20319;-79
2021/03/18 05:27:45;;;;;;;19.80;8.43;;;2.90;99.90;;;;;;5052261;28;20243;-80
2021/03/18 05:30:14;;;;;;;20.20;8.23;;;2.80;99.90;;;;;;5037666;28;20252;-81
2021/03/18 05:32:40;;;;;;;19.20;7.97;;;2.70;99.90;;;;;;5053408;28;20233;-81
2021/03/18 05:35:09;;;;;;;16.07;7.60;;;2.60;99.90;;;;;;5052282;28;20230;-79
2021/03/18 05:37:37;;;;;;;18.77;7.67;;;2.50;99.90;;;;;;5053613;28;20246;-79
2021/03/18 05:40:05;;;;;;;18.07;8.33;;;2.50;99.90;;;;;;5052026;28;20203;-79
2021/03/18 05:42:34;;;;;;;16.67;7.83;;;2.40;99.90;;;;;;5053398;28;20305;-80
2021/03/18 05:45:00;;;;;;;21.60;8.23;;;2.30;99.90;;;;;;5052505;28;20690;-80
2021/03/18 05:47:29;;;;;;;18.20;8.23;;;2.30;99.90;;;;;;5040675;28;20236;-80
2021/03/18 05:49:57;;;;;;;16.30;7.93;;;2.30;99.90;;;;;;5044840;28;20262;-79
2021/03/18 05:52:26;;;;;;;23.87;8.73;;;2.30;99.90;;;;;;5052066;28;20250;-80
2021/03/18 05:54:53;;;;;;;24.80;9.10;;;2.30;99.90;;;;;;5052294;28;20778;-80
2021/03/18 05:57:20;;;;;;;25.27;9.57;;;2.30;99.90;;;;;;5034374;28;20283;-80
2021/03/18 05:59:48;;;;;;;19.60;8.80;;;2.40;99.90;;;;;;5033357;28;20628;-80
2021/03/18 06:02:14;;;;;;;20.67;9.23;;;2.30;99.90;;;;;;5040696;28;20223;-80
2021/03/18 06:04:41;;;;;;;25.43;9.20;;;2.30;99.90;;;;;;5050842;28;20235;-80
2021/03/18 06:07:09;;;;;;;23.17;9.87;;;2.30;99.90;;;;;;5053442;28;20292;-78
2021/03/18 06:09:36;;;;;;;22.67;9.03;;;2.30;99.90;;;;;;5055317;28;20303;-78
2021/03/18 06:12:03;;;;;;;22.10;8.93;;;2.30;99.90;;;;;;5047229;28;20288;-78
2021/03/18 06:14:30;;;;;;;21.37;9.90;;;2.30;99.90;;;;;;5049130;28;20207;-79
2021/03/18 06:17:00;;;;;;;30.77;10.30;;;2.40;99.90;;;;;;5051072;28;20254;-78
2021/03/18 06:19:26;;;;;;;22.13;8.97;;;2.40;99.90;;;;;;5033283;28;20284;-78
2021/03/18 06:21:56;;;;;;;25.30;10.03;;;2.40;99.90;;;;;;5042394;28;20263;-80
2021/03/18 06:24:23;;;;;;;21.57;9.60;;;2.40;99.90;;;;;;5054102;28;20204;-78
2021/03/18 06:26:50;;;;;;;20.77;9.40;;;2.30;99.90;;;;;;5040646;28;20254;-79
2021/03/18 06:29:32;;;;;;;26.67;10.00;;;2.40;99.90;;;;;;5032651;28;20652;-81
2021/03/18 06:32:15;;;;;;;32.30;9.40;;;2.40;99.90;;;;;;5032824;28;20200;-81
2021/03/18 06:34:43;;;;;;;25.43;9.13;;;2.60;99.90;;;;;;5032042;28;20239;-79
2021/03/18 06:37:40;;;;;;;20.40;9.50;;;2.50;99.90;;;;;;5031468;28;20215;-79
2021/03/18 06:40:16;;;;;;;21.30;9.70;;;2.50;99.90;;;;;;5050408;28;20207;-79
2021/03/18 06:42:53;;;;;;;23.57;10.30;;;2.60;99.90;;;;;;5051692;28;20215;-81
2021/03/18 06:45:20;;;;;;;22.97;10.40;;;2.60;99.90;;;;;;5061649;28;20226;-82
2021/03/18 06:47:50;;;;;;;24.13;11.53;;;2.80;99.90;;;;;;5050209;28;20286;-81
2021/03/18 06:50:21;;;;;;;24.47;10.67;;;2.90;99.90;;;;;;5051764;28;20260;-81
2021/03/18 06:52:48;;;;;;;22.63;11.50;;;3.00;99.90;;;;;;5051962;28;20235;-80
2021/03/18 06:55:26;;;;;;;24.57;11.93;;;3.10;99.90;;;;;;5045332;28;20203;-81
2021/03/18 06:58:14;;;;;;;32.27;12.70;;;3.30;99.90;;;;;;5051731;28;20266;-81
2021/03/18 07:00:42;;;;;;;23.43;11.03;;;3.30;99.90;;;;;;5051418;28;20203;-80
2021/03/18 07:03:10;;;;;;;21.20;10.30;;;3.30;99.90;;;;;;5052071;28;20223;-80
2021/03/18 07:05:41;;;;;;;24.30;10.93;;;3.40;99.90;;;;;;5051316;28;20233;-79
2021/03/18 07:08:21;;;;;;;21.23;10.20;;;3.60;99.90;;;;;;5034385;28;20197;-81
2021/03/18 07:10:48;;;;;;;21.80;10.17;;;3.80;99.90;;;;;;5041607;28;20797;-81
2021/03/18 07:13:20;;;;;;;19.77;10.30;;;4.00;99.90;;;;;;5050316;28;20230;-81
2021/03/18 07:15:47;;;;;;;21.17;9.83;;;4.20;99.90;;;;;;5051412;28;20581;-81
2021/03/18 07:18:14;;;;;;;22.07;9.97;;;4.30;99.90;;;;;;5049364;28;20717;-81
2021/03/18 07:20:59;;;;;;;21.27;10.53;;;4.60;99.90;;;;;;5034888;28;20663;-81
2021/03/18 07:23:34;;;;;;;26.40;11.97;;;4.80;99.90;;;;;;5036440;28;20198;-81
2021/03/18 07:26:01;;;;;;;23.07;11.27;;;5.00;99.90;;;;;;5046498;28;20198;-81
2021/03/18 07:28:27;;;;;;;25.23;12.20;;;5.40;99.90;;;;;;5053871;28;20287;-81
2021/03/18 07:30:54;;;;;;;23.80;11.63;;;5.50;99.90;;;;;;5053985;28;20251;-81
2021/03/18 07:33:22;;;;;;;28.90;12.40;;;5.60;99.90;;;;;;5054842;28;20294;-81
2021/03/18 07:35:49;;;;;;;21.80;12.43;;;5.70;99.90;;;;;;5051014;28;20259;-81
2021/03/18 07:38:15;;;;;;;23.40;12.00;;;5.90;99.90;;;;;;5035570;28;20248;-81
2021/03/18 07:40:42;;;;;;;26.10;12.13;;;6.10;99.90;;;;;;5036849;28;20290;-80
2021/03/18 07:43:09;;;;;;;28.37;12.13;;;6.30;99.90;;;;;;5036629;28;20288;-80
2021/03/18 07:45:37;;;;;;;22.33;12.20;;;6.80;99.90;;;;;;5048708;28;20237;-81
2021/03/18 07:48:04;;;;;;;21.13;11.73;;;7.40;99.90;;;;;;5047337;28;20999;-81
2021/03/18 07:50:34;;;;;;;23.33;11.00;;;8.00;99.90;;;;;;5048111;28;20224;-81
2021/03/18 07:53:02;;;;;;;21.20;10.40;;;8.20;99.90;;;;;;5048794;28;20616;-81
2021/03/18 07:55:33;;;;;;;18.73;10.50;;;8.20;99.90;;;;;;5046928;28;20236;-80
2021/03/18 07:57:59;;;;;;;19.93;10.30;;;8.60;99.90;;;;;;5044679;28;20228;-81
2021/03/18 08:00:26;;;;;;;19.47;9.50;;;8.70;99.90;;;;;;5043516;28;20754;-82
2021/03/18 08:03:09;;;;;;;20.17;9.73;;;8.80;99.90;;;;;;5049112;28;20268;-81
2021/03/18 08:05:44;;;;;;;16.97;9.10;;;9.20;99.90;;;;;;5052473;28;20196;-82
2021/03/18 08:08:41;;;;;;;19.00;10.03;;;9.60;99.90;;;;;;5052058;28;20227;-82
2021/03/18 08:11:11;;;;;;;22.00;9.17;;;10.40;99.90;;;;;;5047724;28;20786;-83
2021/03/18 08:13:39;;;;;;;16.70;9.10;;;9.70;99.90;;;;;;5046507;28;20295;-82
2021/03/18 08:16:08;;;;;;;18.57;9.40;;;8.80;99.90;;;;;;5042519;28;20672;-82
2021/03/18 08:18:39;;;;;;;18.53;9.20;;;8.80;99.90;;;;;;5052992;28;20266;-81
2021/03/18 08:21:12;;;;;;;19.70;9.40;;;8.40;99.90;;;;;;5049439;28;20659;-82
2021/03/18 08:23:47;;;;;;;20.47;9.40;;;8.40;99.90;;;;;;5042804;28;20251;-82
2021/03/18 08:26:21;;;;;;;19.27;9.20;;;8.20;99.90;;;;;;5036885;28;20635;-82
2021/03/18 08:28:49;;;;;;;19.23;9.10;;;8.30;99.90;;;;;;5044152;28;20200;-82
2021/03/18 08:31:18;;;;;;;17.27;9.00;;;9.10;99.90;;;;;;5045292;28;20293;-82
2021/03/18 08:33:48;;;;;;;16.50;8.53;;;9.90;99.90;;;;;;5047804;28;20228;-82
2021/03/18 08:36:24;;;;;;;12.73;7.63;;;10.70;99.90;;;;;;5045959;28;20691;-83
2021/03/18 08:38:52;;;;;;;18.57;8.70;;;11.50;99.90;;;;;;5054180;28;20203;-83
2021/03/18 08:41:35;;;;;;;15.77;7.97;;;11.70;99.90;;;;;;5049827;28;20243;-83
2021/03/18 08:44:16;;;;;;;18.50;7.70;;;11.20;99.90;;;;;;5047361;28;20227;-84
2021/03/18 08:46:47;;;;;;;18.67;7.33;;;10.70;99.90;;;;;;5049171;28;20250;-83
2021/03/18 08:49:29;;;;;;;16.07;7.53;;;10.00;99.90;;;;;;5023285;28;20195;-84
2021/03/18 08:51:59;;;;;;;15.83;6.80;;;9.80;99.90;;;;;;5042507;28;20204;-84
2021/03/18 08:54:54;;;;;;;18.13;7.27;;;10.10;99.90;;;;;;5056697;28;20290;-85
2021/03/18 08:57:33;;;;;;;15.83;7.07;;;10.40;99.90;;;;;;5046024;28;20210;-85
2021/03/18 09:00:06;;;;;;;15.93;6.73;;;11.40;99.90;;;;;;5043926;28;20211;-86
2021/03/18 09:02:34;;;;;;;14.67;7.30;;;12.50;99.90;;;;;;5029496;28;20231;-86
2021/03/18 09:05:04;;;;;;;17.03;6.97;;;12.60;99.90;;;;;;5056401;28;20203;-85
2021/03/18 09:07:33;;;;;;;14.63;6.70;;;12.10;99.90;;;;;;5035472;28;20204;-86
2021/03/18 09:10:07;;;;;;;14.37;6.57;;;11.70;99.90;;;;;;5056643;28;20250;-85
2021/03/18 09:12:45;;;;;;;13.83;6.43;;;12.00;99.90;;;;;;5060452;28;20210;-85
2021/03/18 09:15:18;;;;;;;17.57;6.73;;;12.00;99.90;;;;;;5047611;28;20195;-84
2021/03/18 09:17:48;;;;;;;13.00;6.47;;;12.70;99.90;;;;;;5052416;28;20220;-85
2021/03/18 09:20:18;;;;;;;12.40;6.40;;;12.20;99.90;;;;;;5053139;28;20195;-85
2021/03/18 09:22:47;;;;;;;14.97;6.63;;;12.50;99.90;;;;;;5042533;28;20228;-85
2021/03/18 09:25:14;;;;;;;12.30;6.03;;;12.30;99.90;;;;;;5051161;28;20211;-85
2021/03/18 09:27:44;;;;;;;12.77;5.30;;;12.40;99.90;;;;;;5046462;28;20212;-86
2021/03/18 09:30:29;;;;;;;11.53;5.53;;;13.90;99.90;;;;;;5024968;28;20224;-86
2021/03/18 09:32:56;;;;;;;15.60;4.47;;;14.30;99.90;;;;;;5039995;28;20195;-86
2021/03/18 09:35:24;;;;;;;11.70;4.33;;;13.00;99.90;;;;;;5049131;28;20220;-86
2021/03/18 09:37:53;;;;;;;13.47;4.67;;;12.80;99.90;;;;;;5047603;28;20207;-85
2021/03/18 09:40:30;;;;;;;12.50;4.17;;;13.00;99.90;;;;;;5045915;28;20213;-85
2021/03/18 09:42:56;;;;;;;9.43;3.60;;;11.80;99.90;;;;;;5044661;28;20208;-85
2021/03/18 09:45:23;;;;;;;12.53;4.70;;;11.30;99.90;;;;;;5042993;28;20211;-85
2021/03/18 09:47:51;;;;;;;13.30;4.70;;;10.40;99.90;;;;;;5046388;28;20196;-85
2021/03/18 09:50:22;;;;;;;11.93;4.50;;;10.80;99.90;;;;;;5043129;28;20219;-85
2021/03/18 09:52:49;;;;;;;10.00;3.93;;;12.60;99.90;;;;;;5046738;28;20235;-84
2021/03/18 09:55:18;;;;;;;10.93;3.90;;;13.20;99.90;;;;;;5041692;28;20625;-86
2021/03/18 09:57:44;;;;;;;13.33;4.10;;;12.70;99.90;;;;;;5045792;28;20208;-84
2021/03/18 10:00:12;;;;;;;11.33;3.70;;;12.40;99.90;;;;;;5040322;28;20271;-84
2021/03/18 10:02:42;;;;;;;10.30;3.87;;;12.00;99.90;;;;;;5046684;28;20255;-84
2021/03/18 10:05:10;;;;;;;11.53;3.77;;;11.00;99.90;;;;;;5040787;28;20200;-83
2021/03/18 10:07:36;;;;;;;11.37;3.57;;;11.30;99.90;;;;;;5044529;28;20204;-85
2021/03/18 10:10:05;;;;;;;12.17;4.03;;;12.10;99.90;;;;;;5043129;28;20593;-84
2021/03/18 10:12:32;;;;;;;10.67;3.60;;;12.70;99.90;;;;;;5042828;28;20203;-85
2021/03/18 10:15:04;;;;;;;10.87;3.67;;;14.50;99.90;;;;;;5050613;28;20652;-85
2021/03/18 10:17:35;;;;;;;9.23;3.47;;;16.00;99.90;;;;;;5035817;28;20227;-84
2021/03/18 10:20:04;;;;;;;11.63;4.00;;;14.10;99.90;;;;;;5042748;28;20207;-84
2021/03/18 10:22:36;;;;;;;11.67;3.20;;;12.70;99.90;;;;;;5044092;28;20239;-84
2021/03/18 10:25:08;;;;;;;11.40;3.00;;;11.50;99.90;;;;;;5044854;28;20680;-86
2021/03/18 10:27:39;;;;;;;9.17;3.13;;;11.30;99.90;;;;;;5039294;28;20224;-84
2021/03/18 10:30:12;;;;;;;7.67;3.30;;;11.10;99.90;;;;;;5044124;28;20220;-84
2021/03/18 10:32:39;;;;;;;7.40;2.83;;;10.90;99.90;;;;;;5046208;28;20206;-84
2021/03/18 10:35:08;;;;;;;10.30;2.63;;;10.80;99.90;;;;;;5029806;28;20222;-83
2021/03/18 10:37:38;;;;;;;9.30;2.70;;;11.00;99.90;;;;;;5052123;28;20297;-84
2021/03/18 10:40:18;;;;;;;9.67;2.50;;;11.20;99.90;;;;;;5048134;28;20203;-85
2021/03/18 10:42:49;;;;;;;9.87;2.63;;;11.50;99.90;;;;;;5034171;28;20227;-84
2021/03/18 10:45:18;;;;;;;10.80;2.47;;;11.70;99.90;;;;;;5046588;28;20643;-84
2021/03/18 10:47:46;;;;;;;9.37;2.30;;;12.50;99.90;;;;;;5038734;28;20203;-85
2021/03/18 10:50:14;;;;;;;7.50;1.80;;;12.10;99.90;;;;;;5050498;28;20235;-86
2021/03/18 10:52:41;;;;;;;5.13;1.83;;;11.80;99.90;;;;;;5050921;28;20207;-85
2021/03/18 10:55:09;;;;;;;10.47;1.93;;;13.10;99.90;;;;;;5039618;28;20230;-86
2021/03/18 10:57:36;;;;;;;9.20;2.53;;;13.90;99.90;;;;;;5044702;28;20632;-83
2021/03/18 11:00:08;;;;;;;9.97;2.20;;;15.00;99.90;;;;;;5048688;28;20230;-84
2021/03/18 11:02:36;;;;;;;10.70;3.00;;;14.80;99.90;;;;;;5051287;28;20219;-84
2021/03/18 11:05:05;;;;;;;7.63;2.20;;;14.10;99.90;;;;;;5033498;28;20720;-84
2021/03/18 11:07:31;;;;;;;9.30;2.50;;;13.80;99.90;;;;;;5051706;28;20204;-84
2021/03/18 11:10:13;;;;;;;7.97;2.27;;;13.40;99.90;;;;;;5051287;28;20212;-84
2021/03/18 11:12:41;;;;;;;5.97;2.00;;;12.70;99.90;;;;;;5052063;28;20231;-84
2021/03/18 11:15:11;;;;;;;8.23;2.40;;;12.00;99.90;;;;;;5033018;28;20208;-84
2021/03/18 11:17:37;;;;;;;11.40;2.30;;;11.70;99.90;;;;;;5040799;28;20701;-84
2021/03/18 11:20:13;;;;;;;6.90;2.20;;;11.20;99.90;;;;;;5051329;28;20227;-83
2021/03/18 11:22:39;;;;;;;7.93;2.47;;;11.30;99.90;;;;;;5050586;28;20234;-82
2021/03/18 11:25:08;;;;;;;9.10;2.60;;;11.10;99.90;;;;;;5048588;28;20245;-85
2021/03/18 11:27:37;;;;;;;6.93;2.27;;;10.80;99.90;;;;;;5047941;28;20265;-86
2021/03/18 11:30:06;;;;;;;7.97;2.30;;;11.30;99.90;;;;;;5050816;28;20593;-85
2021/03/18 11:32:34;;;;;;;6.03;1.77;;;13.30;99.90;;;;;;5051206;28;20242;-86
2021/03/18 11:35:01;;;;;;;6.10;1.90;;;13.50;99.90;;;;;;5051399;28;20222;-87
2021/03/18 11:37:28;;;;;;;5.17;1.80;;;13.60;99.90;;;;;;5042876;28;20230;-84
2021/03/18 11:39:55;;;;;;;5.37;1.83;;;14.30;99.90;;;;;;5031940;28;20220;-84
2021/03/18 11:42:22;;;;;;;5.90;1.73;;;14.10;99.90;;;;;;5031765;28;20231;-83
2021/03/18 11:44:48;;;;;;;8.00;2.10;;;13.60;99.90;;;;;;5038797;28;20223;-84
2021/03/18 11:47:16;;;;;;;6.50;2.37;;;12.20;99.90;;;;;;5031500;28;20196;-84
2021/03/18 11:49:44;;;;;;;6.03;2.40;;;11.50;99.90;;;;;;5046411;28;20192;-84
2021/03/18 11:52:11;;;;;;;5.57;2.20;;;11.90;99.90;;;;;;5051314;28;20200;-88
2021/03/18 11:54:38;;;;;;;8.27;2.20;;;13.50;99.90;;;;;;5033078;28;20615;-83
2021/03/18 11:57:06;;;;;;;6.97;2.23;;;13.90;99.90;;;;;;5013210;28;20672;-85
2021/03/18 11:59:33;;;;;;;7.57;2.30;;;13.10;99.90;;;;;;5043307;28;20681;-83
2021/03/18 12:02:01;;;;;;;6.83;1.90;;;13.40;99.90;;;;;;5051133;28;20238;-84
2021/03/18 12:04:27;;;;;;;8.30;2.20;;;13.60;99.90;;;;;;5041354;28;20211;-82
2021/03/18 12:06:55;;;;;;;5.47;1.93;;;13.40;99.90;;;;;;5048993;28;20235;-77
2021/03/18 12:09:21;;;;;;;5.83;2.23;;;12.40;99.90;;;;;;5049761;28;20227;-79
2021/03/18 12:11:48;;;;;;;6.17;2.57;;;12.20;99.90;;;;;;5050101;28;20216;-78
2021/03/18 12:14:14;;;;;;;9.10;2.50;;;12.40;99.90;;;;;;5052410;28;20232;-79
2021/03/18 12:16:42;;;;;;;9.27;2.47;;;12.30;99.90;;;;;;5041573;28;20204;-77
2021/03/18 12:19:08;;;;;;;4.57;1.80;;;11.70;99.90;;;;;;5054119;28;20210;-78
2021/03/18 12:21:35;;;;;;;9.53;2.30;;;12.70;99.90;;;;;;5054010;28;20274;-78
2021/03/18 12:24:03;;;;;;;5.80;2.37;;;13.40;99.90;;;;;;5045116;28;20562;-78
2021/03/18 12:26:29;;;;;;;8.57;2.37;;;13.90;99.90;;;;;;5051906;28;20199;-79
2021/03/18 12:28:57;;;;;;;5.47;1.80;;;15.40;99.90;;;;;;5049929;28;20235;-78
2021/03/18 12:31:24;;;;;;;7.17;2.03;;;15.30;99.90;;;;;;5051156;28;20220;-79
2021/03/18 12:33:50;;;;;;;5.87;1.93;;;15.60;99.90;;;;;;5034229;28;20201;-78
2021/03/18 12:36:17;;;;;;;5.73;1.87;;;15.70;99.90;;;;;;5047557;28;20234;-79
2021/03/18 12:38:44;;;;;;;7.10;1.97;;;14.90;99.90;;;;;;5053223;28;20282;-78
2021/03/18 12:41:11;;;;;;;9.80;2.43;;;14.60;99.90;;;;;;5050005;28;20236;-78
2021/03/18 12:43:37;;;;;;;7.37;2.10;;;14.50;99.90;;;;;;5034785;28;20290;-78
2021/03/18 12:46:04;;;;;;;9.43;2.50;;;14.10;99.90;;;;;;5034097;28;20632;-80
2021/03/18 12:48:30;;;;;;;7.20;2.37;;;15.60;99.90;;;;;;5050149;28;20741;-79
2021/03/18 12:50:57;;;;;;;5.80;1.97;;;15.90;99.90;;;;;;5033770;28;20231;-80
2021/03/18 12:53:26;;;;;;;6.97;2.20;;;15.50;99.90;;;;;;5036867;28;20204;-79
2021/03/18 12:55:53;;;;;;;7.43;2.30;;;13.90;99.90;;;;;;5050958;28;20236;-79